sensor_id;sensor_type;location;lat;lon;timestamp;temperature;humidity
9971;DHT22;5026;51.494;11.974;2024-02-23T00:00:12;11.80;99.90
9971;DHT22;5026;51.494;11.974;2024-02-23T00:02:39;11.80;99.90
9971;DHT22;5026;51.494;11.974;2024-02-23T00:05:07;11.80;99.90
9971;DHT22;5026;51.494;11.974;2024-02-23T00:07:33;11.80;99.90
9971;DHT22;5026;51.494;11.974;2024-02-23T00:10:02;11.90;99.90
9971;DHT22;5026;51.494;11.974;2024-02-23T00:12:29;11.90;99.90
9971;DHT22;5026;51.494;11.974;2024-02-23T00:14:55;11.90;99.90
9971;DHT22;5026;51.494;11.974;2024-02-23T00:17:22;11.90;99.90
9971;DHT22;5026;51.494;11.974;2024-02-23T00:19:49;11.90;99.90
9971;DHT22;5026;51.494;11.974;2024-02-23T00:22:18;11.80;99.90
9971;DHT22;5026;51.494;11.974;2024-02-23T00:24:45;11.70;99.90
9971;DHT22;5026;51.494;11.974;2024-02-23T00:27:13;11.70;99.90
9971;DHT22;5026;51.494;11.974;2024-02-23T00:29:40;11.60;99.90
9971;DHT22;5026;51.494;11.974;2024-02-23T00:32:07;11.50;99.90
9971;DHT22;5026;51.494;11.974;2024-02-23T00:34:34;11.40;99.90
9971;DHT22;5026;51.494;11.974;2024-02-23T00:37:01;11.30;99.90
9971;DHT22;5026;51.494;11.974;2024-02-23T00:39:29;11.20;99.90
9971;DHT22;5026;51.494;11.974;2024-02-23T00:41:56;11.30;99.90
9971;DHT22;5026;51.494;11.974;2024-02-23T00:44:25;11.30;99.90
9971;DHT22;5026;51.494;11.974;2024-02-23T00:46:52;11.30;99.90
9971;DHT22;5026;51.494;11.974;2024-02-23T00:49:18;11.20;99.90
9971;DHT22;5026;51.494;11.974;2024-02-23T00:51:45;11.10;99.60
9971;DHT22;5026;51.494;11.974;2024-02-23T00:54:12;11.10;99.50
9971;DHT22;5026;51.494;11.974;2024-02-23T00:56:39;11.00;99.70
9971;DHT22;5026;51.494;11.974;2024-02-23T00:59:06;10.90;99.90
9971;DHT22;5026;51.494;11.974;2024-02-23T01:01:33;10.90;99.90
9971;DHT22;5026;51.494;11.974;2024-02-23T01:04:00;10.80;99.90
9971;DHT22;5026;51.494;11.974;2024-02-23T01:06:27;10.80;99.90
9971;DHT22;5026;51.494;11.974;2024-02-23T01:08:54;10.70;99.90
9971;DHT22;5026;51.494;11.974;2024-02-23T01:11:21;10.70;99.90
9971;DHT22;5026;51.494;11.974;2024-02-23T01:13:48;10.70;99.40
9971;DHT22;5026;51.494;11.974;2024-02-23T01:16:15;10.60;98.90
9971;DHT22;5026;51.494;11.974;2024-02-23T01:18:43;10.60;98.30
9971;DHT22;5026;51.494;11.974;2024-02-23T01:21:10;10.50;98.20
9971;DHT22;5026;51.494;11.974;2024-02-23T01:23:37;10.50;97.90
9971;DHT22;5026;51.494;11.974;2024-02-23T01:26:04;10.50;97.90
9971;DHT22;5026;51.494;11.974;2024-02-23T01:28:31;10.50;98.00
9971;DHT22;5026;51.494;11.974;2024-02-23T01:30:58;10.40;97.80
9971;DHT22;5026;51.494;11.974;2024-02-23T01:33:25;10.40;97.70
9971;DHT22;5026;51.494;11.974;2024-02-23T01:35:54;10.50;97.80
9971;DHT22;5026;51.494;11.974;2024-02-23T01:38:21;10.40;98.00
9971;DHT22;5026;51.494;11.974;2024-02-23T01:40:50;10.30;98.10
9971;DHT22;5026;51.494;11.974;2024-02-23T01:43:17;10.20;98.10
9971;DHT22;5026;51.494;11.974;2024-02-23T01:45:44;10.20;98.30
9971;DHT22;5026;51.494;11.974;2024-02-23T01:48:11;10.10;98.40
9971;DHT22;5026;51.494;11.974;2024-02-23T01:50:38;10.10;98.70
9971;DHT22;5026;51.494;11.974;2024-02-23T01:53:07;10.00;98.80
9971;DHT22;5026;51.494;11.974;2024-02-23T01:55:35;10.00;99.00
9971;DHT22;5026;51.494;11.974;2024-02-23T01:58:04;9.90;99.50
9971;DHT22;5026;51.494;11.974;2024-02-23T02:00:32;9.80;99.60
9971;DHT22;5026;51.494;11.974;2024-02-23T02:02:59;9.70;99.40
9971;DHT22;5026;51.494;11.974;2024-02-23T02:05:26;9.70;99.40
9971;DHT22;5026;51.494;11.974;2024-02-23T02:07:55;9.70;99.20
9971;DHT22;5026;51.494;11.974;2024-02-23T02:10:25;9.80;99.20
9971;DHT22;5026;51.494;11.974;2024-02-23T02:12:52;9.90;99.10
9971;DHT22;5026;51.494;11.974;2024-02-23T02:15:20;9.90;99.10
9971;DHT22;5026;51.494;11.974;2024-02-23T02:17:48;10.00;98.80
9971;DHT22;5026;51.494;11.974;2024-02-23T02:20:15;10.00;98.90
9971;DHT22;5026;51.494;11.974;2024-02-23T02:22:44;10.00;99.00
9971;DHT22;5026;51.494;11.974;2024-02-23T02:25:14;10.10;98.80
9971;DHT22;5026;51.494;11.974;2024-02-23T02:27:42;10.10;98.80
9971;DHT22;5026;51.494;11.974;2024-02-23T02:30:11;10.10;99.00
9971;DHT22;5026;51.494;11.974;2024-02-23T02:32:38;10.10;99.10
9971;DHT22;5026;51.494;11.974;2024-02-23T02:35:06;10.20;99.20
9971;DHT22;5026;51.494;11.974;2024-02-23T02:37:33;10.20;99.20
9971;DHT22;5026;51.494;11.974;2024-02-23T02:40:00;10.20;99.60
9971;DHT22;5026;51.494;11.974;2024-02-23T02:42:26;10.20;99.80
9971;DHT22;5026;51.494;11.974;2024-02-23T02:44:55;10.10;99.70
9971;DHT22;5026;51.494;11.974;2024-02-23T02:47:22;10.00;99.90
9971;DHT22;5026;51.494;11.974;2024-02-23T02:49:49;9.90;99.90
9971;DHT22;5026;51.494;11.974;2024-02-23T02:52:16;9.80;99.90
9971;DHT22;5026;51.494;11.974;2024-02-23T02:54:43;9.80;99.90
9971;DHT22;5026;51.494;11.974;2024-02-23T02:57:10;9.70;99.90
9971;DHT22;5026;51.494;11.974;2024-02-23T02:59:37;9.60;99.90
9971;DHT22;5026;51.494;11.974;2024-02-23T03:02:06;9.50;99.90
9971;DHT22;5026;51.494;11.974;2024-02-23T03:04:32;9.40;99.90
9971;DHT22;5026;51.494;11.974;2024-02-23T03:06:59;9.30;99.90
9971;DHT22;5026;51.494;11.974;2024-02-23T03:09:26;9.20;99.90
9971;DHT22;5026;51.494;11.974;2024-02-23T03:11:53;9.10;99.90
9971;DHT22;5026;51.494;11.974;2024-02-23T03:14:21;8.90;99.90
9971;DHT22;5026;51.494;11.974;2024-02-23T03:16:49;8.90;99.90
9971;DHT22;5026;51.494;11.974;2024-02-23T03:19:17;8.80;99.90
9971;DHT22;5026;51.494;11.974;2024-02-23T03:21:47;8.70;99.90
9971;DHT22;5026;51.494;11.974;2024-02-23T03:24:14;8.70;99.90
9971;DHT22;5026;51.494;11.974;2024-02-23T03:26:41;8.60;99.90
9971;DHT22;5026;51.494;11.974;2024-02-23T03:29:08;8.60;99.90
9971;DHT22;5026;51.494;11.974;2024-02-23T03:31:35;8.50;99.90
9971;DHT22;5026;51.494;11.974;2024-02-23T03:34:02;8.50;99.90
9971;DHT22;5026;51.494;11.974;2024-02-23T03:36:31;8.40;99.90
9971;DHT22;5026;51.494;11.974;2024-02-23T03:38:57;8.30;99.90
9971;DHT22;5026;51.494;11.974;2024-02-23T03:41:24;8.30;99.90
9971;DHT22;5026;51.494;11.974;2024-02-23T03:43:51;8.30;99.90
9971;DHT22;5026;51.494;11.974;2024-02-23T03:46:18;8.20;99.90
9971;DHT22;5026;51.494;11.974;2024-02-23T03:48:45;8.10;99.90
9971;DHT22;5026;51.494;11.974;2024-02-23T03:51:12;8.10;99.90
9971;DHT22;5026;51.494;11.974;2024-02-23T03:53:40;8.10;99.90
9971;DHT22;5026;51.494;11.974;2024-02-23T03:56:07;8.00;99.90
9971;DHT22;5026;51.494;11.974;2024-02-23T03:58:35;8.00;99.90
9971;DHT22;5026;51.494;11.974;2024-02-23T04:01:01;8.10;99.90
9971;DHT22;5026;51.494;11.974;2024-02-23T04:03:28;8.10;99.90
9971;DHT22;5026;51.494;11.974;2024-02-23T04:05:55;8.00;99.90
9971;DHT22;5026;51.494;11.974;2024-02-23T04:08:22;8.00;99.90
9971;DHT22;5026;51.494;11.974;2024-02-23T04:10:51;8.00;99.90
9971;DHT22;5026;51.494;11.974;2024-02-23T04:13:17;8.00;99.90
9971;DHT22;5026;51.494;11.974;2024-02-23T04:15:45;7.90;99.90
9971;DHT22;5026;51.494;11.974;2024-02-23T04:18:12;7.90;99.90
9971;DHT22;5026;51.494;11.974;2024-02-23T04:20:39;7.90;99.90
9971;DHT22;5026;51.494;11.974;2024-02-23T04:23:06;7.90;99.90
9971;DHT22;5026;51.494;11.974;2024-02-23T04:25:32;7.80;99.90
9971;DHT22;5026;51.494;11.974;2024-02-23T04:28:01;7.90;99.90
9971;DHT22;5026;51.494;11.974;2024-02-23T04:30:27;7.90;99.90
9971;DHT22;5026;51.494;11.974;2024-02-23T04:32:54;7.90;99.90
9971;DHT22;5026;51.494;11.974;2024-02-23T04:35:21;8.00;99.90
9971;DHT22;5026;51.494;11.974;2024-02-23T04:37:48;7.90;99.90
9971;DHT22;5026;51.494;11.974;2024-02-23T04:40:16;7.90;99.90
9971;DHT22;5026;51.494;11.974;2024-02-23T04:42:43;7.80;99.90
9971;DHT22;5026;51.494;11.974;2024-02-23T04:45:14;7.80;99.90
9971;DHT22;5026;51.494;11.974;2024-02-23T04:47:41;7.80;99.90
9971;DHT22;5026;51.494;11.974;2024-02-23T04:50:08;7.80;99.90
9971;DHT22;5026;51.494;11.974;2024-02-23T04:52:35;7.80;99.90
9971;DHT22;5026;51.494;11.974;2024-02-23T04:55:02;7.70;99.90
9971;DHT22;5026;51.494;11.974;2024-02-23T04:57:30;7.70;99.90
9971;DHT22;5026;51.494;11.974;2024-02-23T04:59:57;7.70;99.90
9971;DHT22;5026;51.494;11.974;2024-02-23T05:02:26;7.90;99.90
9971;DHT22;5026;51.494;11.974;2024-02-23T05:04:54;7.90;99.90
9971;DHT22;5026;51.494;11.974;2024-02-23T05:07:22;8.00;99.90
9971;DHT22;5026;51.494;11.974;2024-02-23T05:09:49;8.10;99.90
9971;DHT22;5026;51.494;11.974;2024-02-23T05:12:16;8.10;99.90
9971;DHT22;5026;51.494;11.974;2024-02-23T05:14:43;8.10;99.90
9971;DHT22;5026;51.494;11.974;2024-02-23T05:17:10;8.20;99.90
9971;DHT22;5026;51.494;11.974;2024-02-23T05:19:38;8.10;99.90
9971;DHT22;5026;51.494;11.974;2024-02-23T05:22:05;8.10;99.90
9971;DHT22;5026;51.494;11.974;2024-02-23T05:24:32;8.00;99.90
9971;DHT22;5026;51.494;11.974;2024-02-23T05:26:59;7.90;99.90
9971;DHT22;5026;51.494;11.974;2024-02-23T05:29:28;7.80;99.90
9971;DHT22;5026;51.494;11.974;2024-02-23T05:31:55;7.80;99.90
9971;DHT22;5026;51.494;11.974;2024-02-23T05:34:22;7.70;99.90
9971;DHT22;5026;51.494;11.974;2024-02-23T05:36:50;7.50;99.90
9971;DHT22;5026;51.494;11.974;2024-02-23T05:39:17;7.50;99.90
9971;DHT22;5026;51.494;11.974;2024-02-23T05:41:44;7.40;99.90
9971;DHT22;5026;51.494;11.974;2024-02-23T05:44:11;7.40;99.90
9971;DHT22;5026;51.494;11.974;2024-02-23T05:46:39;7.30;99.90
9971;DHT22;5026;51.494;11.974;2024-02-23T05:49:06;7.30;99.90
9971;DHT22;5026;51.494;11.974;2024-02-23T05:51:32;7.20;99.90
9971;DHT22;5026;51.494;11.974;2024-02-23T05:54:02;7.20;99.90
9971;DHT22;5026;51.494;11.974;2024-02-23T05:56:29;7.20;99.90
9971;DHT22;5026;51.494;11.974;2024-02-23T05:58:56;7.20;99.90
9971;DHT22;5026;51.494;11.974;2024-02-23T06:01:23;7.20;99.90
9971;DHT22;5026;51.494;11.974;2024-02-23T06:03:50;7.20;99.90
9971;DHT22;5026;51.494;11.974;2024-02-23T06:06:18;7.20;99.90
9971;DHT22;5026;51.494;11.974;2024-02-23T06:08:45;7.20;99.90
9971;DHT22;5026;51.494;11.974;2024-02-23T06:11:16;7.10;99.90
9971;DHT22;5026;51.494;11.974;2024-02-23T06:13:43;7.10;99.90
9971;DHT22;5026;51.494;11.974;2024-02-23T06:16:10;7.10;99.90
9971;DHT22;5026;51.494;11.974;2024-02-23T06:18:39;7.00;99.90
9971;DHT22;5026;51.494;11.974;2024-02-23T06:21:11;7.10;99.90
9971;DHT22;5026;51.494;11.974;2024-02-23T06:23:39;7.00;99.90
9971;DHT22;5026;51.494;11.974;2024-02-23T06:26:06;7.00;99.90
9971;DHT22;5026;51.494;11.974;2024-02-23T06:28:34;7.00;99.90
9971;DHT22;5026;51.494;11.974;2024-02-23T06:31:03;7.10;99.90
9971;DHT22;5026;51.494;11.974;2024-02-23T06:33:30;7.10;99.90
9971;DHT22;5026;51.494;11.974;2024-02-23T06:35:57;7.10;99.90
9971;DHT22;5026;51.494;11.974;2024-02-23T06:38:24;7.10;99.90
9971;DHT22;5026;51.494;11.974;2024-02-23T06:40:51;7.10;99.90
9971;DHT22;5026;51.494;11.974;2024-02-23T06:43:18;7.20;99.90
9971;DHT22;5026;51.494;11.974;2024-02-23T06:45:46;7.20;99.90
9971;DHT22;5026;51.494;11.974;2024-02-23T06:48:13;7.20;99.90
9971;DHT22;5026;51.494;11.974;2024-02-23T06:50:40;7.30;99.90
9971;DHT22;5026;51.494;11.974;2024-02-23T06:53:07;7.30;99.90
9971;DHT22;5026;51.494;11.974;2024-02-23T06:55:34;7.30;99.90
9971;DHT22;5026;51.494;11.974;2024-02-23T06:58:01;7.30;99.80
9971;DHT22;5026;51.494;11.974;2024-02-23T07:00:30;7.30;99.90
9971;DHT22;5026;51.494;11.974;2024-02-23T07:02:58;7.30;99.70
9971;DHT22;5026;51.494;11.974;2024-02-23T07:05:27;7.40;99.70
9971;DHT22;5026;51.494;11.974;2024-02-23T07:07:54;7.30;99.80
9971;DHT22;5026;51.494;11.974;2024-02-23T07:10:21;7.30;99.80
9971;DHT22;5026;51.494;11.974;2024-02-23T07:12:50;7.40;99.80
9971;DHT22;5026;51.494;11.974;2024-02-23T07:15:18;7.40;99.90
9971;DHT22;5026;51.494;11.974;2024-02-23T07:17:45;7.40;99.90
9971;DHT22;5026;51.494;11.974;2024-02-23T07:20:14;7.40;99.90
9971;DHT22;5026;51.494;11.974;2024-02-23T07:22:43;7.50;99.90
9971;DHT22;5026;51.494;11.974;2024-02-23T07:25:11;7.60;99.90
9971;DHT22;5026;51.494;11.974;2024-02-23T07:27:38;7.60;99.90
9971;DHT22;5026;51.494;11.974;2024-02-23T07:30:06;7.60;99.90
9971;DHT22;5026;51.494;11.974;2024-02-23T07:32:33;7.60;99.90
9971;DHT22;5026;51.494;11.974;2024-02-23T07:35:00;7.70;99.90
9971;DHT22;5026;51.494;11.974;2024-02-23T07:37:31;7.80;99.90
9971;DHT22;5026;51.494;11.974;2024-02-23T07:39:59;7.90;99.90
9971;DHT22;5026;51.494;11.974;2024-02-23T07:42:26;7.90;99.90
9971;DHT22;5026;51.494;11.974;2024-02-23T07:44:52;8.00;99.90
9971;DHT22;5026;51.494;11.974;2024-02-23T07:47:19;8.10;99.90
9971;DHT22;5026;51.494;11.974;2024-02-23T07:49:46;8.20;99.80
9971;DHT22;5026;51.494;11.974;2024-02-23T07:52:13;8.30;99.70
9971;DHT22;5026;51.494;11.974;2024-02-23T07:54:42;8.20;99.80
9971;DHT22;5026;51.494;11.974;2024-02-23T07:57:09;8.40;99.50
9971;DHT22;5026;51.494;11.974;2024-02-23T07:59:36;8.50;99.50
9971;DHT22;5026;51.494;11.974;2024-02-23T08:02:03;8.50;99.50
9971;DHT22;5026;51.494;11.974;2024-02-23T08:04:30;8.50;99.00
9971;DHT22;5026;51.494;11.974;2024-02-23T08:06:56;8.50;99.10
9971;DHT22;5026;51.494;11.974;2024-02-23T08:09:23;8.40;99.30
9971;DHT22;5026;51.494;11.974;2024-02-23T08:11:51;8.50;99.30
9971;DHT22;5026;51.494;11.974;2024-02-23T08:14:18;8.60;99.30
9971;DHT22;5026;51.494;11.974;2024-02-23T08:16:45;8.80;99.20
9971;DHT22;5026;51.494;11.974;2024-02-23T08:19:12;8.80;98.80
9971;DHT22;5026;51.494;11.974;2024-02-23T08:21:39;8.90;98.50
9971;DHT22;5026;51.494;11.974;2024-02-23T08:24:07;8.90;98.40
9971;DHT22;5026;51.494;11.974;2024-02-23T08:26:34;8.90;98.20
9971;DHT22;5026;51.494;11.974;2024-02-23T08:29:02;8.90;98.20
9971;DHT22;5026;51.494;11.974;2024-02-23T08:31:30;9.00;98.30
9971;DHT22;5026;51.494;11.974;2024-02-23T08:33:57;9.20;98.20
9971;DHT22;5026;51.494;11.974;2024-02-23T08:36:24;9.30;98.10
9971;DHT22;5026;51.494;11.974;2024-02-23T08:38:51;9.40;97.90
9971;DHT22;5026;51.494;11.974;2024-02-23T08:41:17;9.60;97.80
9971;DHT22;5026;51.494;11.974;2024-02-23T08:43:44;9.60;97.50
9971;DHT22;5026;51.494;11.974;2024-02-23T08:46:13;9.90;97.60
9971;DHT22;5026;51.494;11.974;2024-02-23T08:48:40;9.90;97.20
9971;DHT22;5026;51.494;11.974;2024-02-23T08:51:06;10.10;96.50
9971;DHT22;5026;51.494;11.974;2024-02-23T08:53:33;10.20;96.50
9971;DHT22;5026;51.494;11.974;2024-02-23T08:56:00;10.40;96.60
9971;DHT22;5026;51.494;11.974;2024-02-23T08:58:27;10.60;96.40
9971;DHT22;5026;51.494;11.974;2024-02-23T09:00:54;10.80;96.10
9971;DHT22;5026;51.494;11.974;2024-02-23T09:03:22;11.20;95.80
9971;DHT22;5026;51.494;11.974;2024-02-23T09:05:49;11.40;95.60
9971;DHT22;5026;51.494;11.974;2024-02-23T09:08:16;11.60;95.20
9971;DHT22;5026;51.494;11.974;2024-02-23T09:10:43;11.70;94.80
9971;DHT22;5026;51.494;11.974;2024-02-23T09:13:11;11.70;94.70
9971;DHT22;5026;51.494;11.974;2024-02-23T09:15:38;11.60;94.30
9971;DHT22;5026;51.494;11.974;2024-02-23T09:18:05;11.50;94.20
9971;DHT22;5026;51.494;11.974;2024-02-23T09:20:33;11.10;94.20
9971;DHT22;5026;51.494;11.974;2024-02-23T09:23:00;11.20;94.30
9971;DHT22;5026;51.494;11.974;2024-02-23T09:25:27;11.30;94.00
9971;DHT22;5026;51.494;11.974;2024-02-23T09:27:57;11.30;94.20
9971;DHT22;5026;51.494;11.974;2024-02-23T09:30:23;11.40;94.20
9971;DHT22;5026;51.494;11.974;2024-02-23T09:32:50;11.50;93.90
9971;DHT22;5026;51.494;11.974;2024-02-23T09:35:18;11.40;93.50
9971;DHT22;5026;51.494;11.974;2024-02-23T09:37:45;11.40;93.50
9971;DHT22;5026;51.494;11.974;2024-02-23T09:40:12;11.30;93.30
9971;DHT22;5026;51.494;11.974;2024-02-23T09:42:40;11.30;92.90
9971;DHT22;5026;51.494;11.974;2024-02-23T09:45:11;11.20;93.10
9971;DHT22;5026;51.494;11.974;2024-02-23T09:47:39;11.00;93.00
9971;DHT22;5026;51.494;11.974;2024-02-23T09:50:09;11.00;93.30
9971;DHT22;5026;51.494;11.974;2024-02-23T09:52:36;11.10;92.70
9971;DHT22;5026;51.494;11.974;2024-02-23T09:55:05;11.10;92.60
9971;DHT22;5026;51.494;11.974;2024-02-23T09:57:33;11.10;92.50
9971;DHT22;5026;51.494;11.974;2024-02-23T10:00:01;11.10;92.20
9971;DHT22;5026;51.494;11.974;2024-02-23T10:02:34;11.00;92.20
9971;DHT22;5026;51.494;11.974;2024-02-23T10:05:03;10.90;92.20
9971;DHT22;5026;51.494;11.974;2024-02-23T10:07:30;11.00;92.20
9971;DHT22;5026;51.494;11.974;2024-02-23T10:09:56;11.00;91.80
9971;DHT22;5026;51.494;11.974;2024-02-23T10:12:26;10.80;91.90
9971;DHT22;5026;51.494;11.974;2024-02-23T10:14:53;10.70;91.70
9971;DHT22;5026;51.494;11.974;2024-02-23T10:17:20;10.70;92.40
9971;DHT22;5026;51.494;11.974;2024-02-23T10:19:47;10.70;91.60
9971;DHT22;5026;51.494;11.974;2024-02-23T10:22:14;10.80;91.80
9971;DHT22;5026;51.494;11.974;2024-02-23T10:24:42;10.90;91.80
9971;DHT22;5026;51.494;11.974;2024-02-23T10:27:09;11.00;91.60
9971;DHT22;5026;51.494;11.974;2024-02-23T10:29:37;10.90;91.60
9971;DHT22;5026;51.494;11.974;2024-02-23T10:32:06;11.00;91.70
9971;DHT22;5026;51.494;11.974;2024-02-23T10:34:36;11.00;91.70
9971;DHT22;5026;51.494;11.974;2024-02-23T10:37:05;11.20;91.70
9971;DHT22;5026;51.494;11.974;2024-02-23T10:39:36;11.20;91.60
9971;DHT22;5026;51.494;11.974;2024-02-23T10:42:04;11.10;91.20
9971;DHT22;5026;51.494;11.974;2024-02-23T10:44:38;11.20;91.20
9971;DHT22;5026;51.494;11.974;2024-02-23T10:47:07;11.30;91.20
9971;DHT22;5026;51.494;11.974;2024-02-23T10:49:34;11.50;91.10
9971;DHT22;5026;51.494;11.974;2024-02-23T10:52:03;11.50;91.00
9971;DHT22;5026;51.494;11.974;2024-02-23T10:54:31;11.60;91.10
9971;DHT22;5026;51.494;11.974;2024-02-23T10:56:59;11.60;91.00
9971;DHT22;5026;51.494;11.974;2024-02-23T10:59:26;11.60;90.90
9971;DHT22;5026;51.494;11.974;2024-02-23T11:01:55;11.60;90.90
9971;DHT22;5026;51.494;11.974;2024-02-23T11:04:25;11.50;90.70
9971;DHT22;5026;51.494;11.974;2024-02-23T11:06:54;11.50;90.60
9971;DHT22;5026;51.494;11.974;2024-02-23T11:09:24;11.50;90.50
9971;DHT22;5026;51.494;11.974;2024-02-23T11:11:53;11.60;90.30
9971;DHT22;5026;51.494;11.974;2024-02-23T11:14:29;11.40;90.50
9971;DHT22;5026;51.494;11.974;2024-02-23T11:16:58;11.50;90.40
9971;DHT22;5026;51.494;11.974;2024-02-23T11:19:33;11.50;90.30
9971;DHT22;5026;51.494;11.974;2024-02-23T11:22:01;11.50;90.40
9971;DHT22;5026;51.494;11.974;2024-02-23T11:24:29;11.70;90.40
9971;DHT22;5026;51.494;11.974;2024-02-23T11:26:57;11.80;90.30
9971;DHT22;5026;51.494;11.974;2024-02-23T11:29:26;11.90;90.20
9971;DHT22;5026;51.494;11.974;2024-02-23T11:31:55;11.90;89.20
9971;DHT22;5026;51.494;11.974;2024-02-23T11:34:28;11.90;89.40
9971;DHT22;5026;51.494;11.974;2024-02-23T11:36:55;11.90;89.20
9971;DHT22;5026;51.494;11.974;2024-02-23T11:39:24;11.80;89.10
9971;DHT22;5026;51.494;11.974;2024-02-23T11:41:52;11.70;89.20
9971;DHT22;5026;51.494;11.974;2024-02-23T11:44:19;11.70;88.70
9971;DHT22;5026;51.494;11.974;2024-02-23T11:46:46;11.60;87.90
9971;DHT22;5026;51.494;11.974;2024-02-23T11:49:14;11.50;88.50
9971;DHT22;5026;51.494;11.974;2024-02-23T11:51:42;11.50;88.40
9971;DHT22;5026;51.494;11.974;2024-02-23T11:54:10;11.60;88.60
9971;DHT22;5026;51.494;11.974;2024-02-23T11:56:37;11.60;88.30
9971;DHT22;5026;51.494;11.974;2024-02-23T11:59:03;11.30;87.00
9971;DHT22;5026;51.494;11.974;2024-02-23T12:01:31;10.90;86.60
9971;DHT22;5026;51.494;11.974;2024-02-23T12:03:58;11.00;87.50
9971;DHT22;5026;51.494;11.974;2024-02-23T12:06:25;11.20;87.70
9971;DHT22;5026;51.494;11.974;2024-02-23T12:08:56;11.50;87.90
9971;DHT22;5026;51.494;11.974;2024-02-23T12:11:23;11.60;87.60
9971;DHT22;5026;51.494;11.974;2024-02-23T12:13:50;11.40;88.10
9971;DHT22;5026;51.494;11.974;2024-02-23T12:16:17;11.40;88.10
9971;DHT22;5026;51.494;11.974;2024-02-23T12:18:44;11.40;87.70
9971;DHT22;5026;51.494;11.974;2024-02-23T12:21:11;11.50;87.50
9971;DHT22;5026;51.494;11.974;2024-02-23T12:23:40;11.50;86.60
9971;DHT22;5026;51.494;11.974;2024-02-23T12:26:08;11.50;86.00
9971;DHT22;5026;51.494;11.974;2024-02-23T12:28:36;11.40;87.40
9971;DHT22;5026;51.494;11.974;2024-02-23T12:31:04;11.50;87.00
9971;DHT22;5026;51.494;11.974;2024-02-23T12:33:32;11.60;86.40
9971;DHT22;5026;51.494;11.974;2024-02-23T12:36:01;11.70;86.00
9971;DHT22;5026;51.494;11.974;2024-02-23T12:38:28;11.80;86.20
9971;DHT22;5026;51.494;11.974;2024-02-23T12:40:55;11.80;86.20
9971;DHT22;5026;51.494;11.974;2024-02-23T12:43:24;11.20;86.10
9971;DHT22;5026;51.494;11.974;2024-02-23T12:45:51;11.10;86.00
9971;DHT22;5026;51.494;11.974;2024-02-23T12:48:19;11.20;86.50
9971;DHT22;5026;51.494;11.974;2024-02-23T12:50:47;11.30;87.00
9971;DHT22;5026;51.494;11.974;2024-02-23T12:53:30;11.20;86.20
9971;DHT22;5026;51.494;11.974;2024-02-23T12:55:58;11.20;86.30
9971;DHT22;5026;51.494;11.974;2024-02-23T12:58:26;11.30;86.80
9971;DHT22;5026;51.494;11.974;2024-02-23T13:00:53;11.40;87.00
9971;DHT22;5026;51.494;11.974;2024-02-23T13:03:20;11.40;87.10
9971;DHT22;5026;51.494;11.974;2024-02-23T13:05:47;11.40;86.90
9971;DHT22;5026;51.494;11.974;2024-02-23T13:08:15;11.50;87.10
9971;DHT22;5026;51.494;11.974;2024-02-23T13:10:41;11.50;87.30
9971;DHT22;5026;51.494;11.974;2024-02-23T13:13:08;11.60;86.80
9971;DHT22;5026;51.494;11.974;2024-02-23T13:15:36;11.50;86.90
9971;DHT22;5026;51.494;11.974;2024-02-23T13:18:04;11.50;86.60
9971;DHT22;5026;51.494;11.974;2024-02-23T13:20:31;11.50;86.70
9971;DHT22;5026;51.494;11.974;2024-02-23T13:22:58;11.50;86.70
9971;DHT22;5026;51.494;11.974;2024-02-23T13:25:25;11.40;86.90
9971;DHT22;5026;51.494;11.974;2024-02-23T13:27:51;11.50;87.30
9971;DHT22;5026;51.494;11.974;2024-02-23T13:30:18;11.50;87.90
9971;DHT22;5026;51.494;11.974;2024-02-23T13:32:47;11.40;87.70
9971;DHT22;5026;51.494;11.974;2024-02-23T13:35:13;11.30;88.00
9971;DHT22;5026;51.494;11.974;2024-02-23T13:37:40;11.30;87.80
9971;DHT22;5026;51.494;11.974;2024-02-23T13:40:08;11.30;87.80
9971;DHT22;5026;51.494;11.974;2024-02-23T13:42:36;11.30;87.70
9971;DHT22;5026;51.494;11.974;2024-02-23T13:45:05;11.30;87.80
9971;DHT22;5026;51.494;11.974;2024-02-23T13:47:33;11.30;87.30
9971;DHT22;5026;51.494;11.974;2024-02-23T13:50:01;11.30;87.80
9971;DHT22;5026;51.494;11.974;2024-02-23T13:52:28;11.00;87.50
9971;DHT22;5026;51.494;11.974;2024-02-23T13:54:56;11.10;88.00
9971;DHT22;5026;51.494;11.974;2024-02-23T13:57:23;11.10;87.50
9971;DHT22;5026;51.494;11.974;2024-02-23T13:59:50;11.10;87.60
9971;DHT22;5026;51.494;11.974;2024-02-23T14:02:24;11.10;86.70
9971;DHT22;5026;51.494;11.974;2024-02-23T14:04:52;11.20;87.10
9971;DHT22;5026;51.494;11.974;2024-02-23T14:07:20;11.20;87.10
9971;DHT22;5026;51.494;11.974;2024-02-23T14:09:48;11.10;86.70
9971;DHT22;5026;51.494;11.974;2024-02-23T14:12:14;11.00;87.20
9971;DHT22;5026;51.494;11.974;2024-02-23T14:14:41;11.10;87.80
9971;DHT22;5026;51.494;11.974;2024-02-23T14:17:08;11.20;87.60
9971;DHT22;5026;51.494;11.974;2024-02-23T14:19:35;11.20;87.50
9971;DHT22;5026;51.494;11.974;2024-02-23T14:22:02;11.30;87.50
9971;DHT22;5026;51.494;11.974;2024-02-23T14:24:30;11.30;86.90
9971;DHT22;5026;51.494;11.974;2024-02-23T14:26:57;11.10;86.90
9971;DHT22;5026;51.494;11.974;2024-02-23T14:29:23;11.00;87.40
9971;DHT22;5026;51.494;11.974;2024-02-23T14:31:50;10.60;87.60
9971;DHT22;5026;51.494;11.974;2024-02-23T14:34:17;10.60;87.60
9971;DHT22;5026;51.494;11.974;2024-02-23T14:36:45;10.70;87.50
9971;DHT22;5026;51.494;11.974;2024-02-23T14:39:12;10.70;87.80
9971;DHT22;5026;51.494;11.974;2024-02-23T14:41:41;10.80;87.80
9971;DHT22;5026;51.494;11.974;2024-02-23T14:44:08;10.70;87.70
9971;DHT22;5026;51.494;11.974;2024-02-23T14:46:35;10.60;87.50
9971;DHT22;5026;51.494;11.974;2024-02-23T14:49:02;10.60;87.30
9971;DHT22;5026;51.494;11.974;2024-02-23T14:51:29;10.50;86.80
9971;DHT22;5026;51.494;11.974;2024-02-23T14:53:56;10.40;86.60
9971;DHT22;5026;51.494;11.974;2024-02-23T14:56:23;10.40;86.70
9971;DHT22;5026;51.494;11.974;2024-02-23T14:58:51;10.30;86.70
9971;DHT22;5026;51.494;11.974;2024-02-23T15:01:18;10.20;86.80
9971;DHT22;5026;51.494;11.974;2024-02-23T15:03:45;10.40;87.10
9971;DHT22;5026;51.494;11.974;2024-02-23T15:06:13;10.30;87.40
9971;DHT22;5026;51.494;11.974;2024-02-23T15:08:40;10.30;87.50
9971;DHT22;5026;51.494;11.974;2024-02-23T15:11:07;10.20;88.00
9971;DHT22;5026;51.494;11.974;2024-02-23T15:13:34;10.10;87.70
9971;DHT22;5026;51.494;11.974;2024-02-23T15:16:03;10.10;87.40
9971;DHT22;5026;51.494;11.974;2024-02-23T15:18:30;10.10;88.00
9971;DHT22;5026;51.494;11.974;2024-02-23T15:20:57;10.00;87.70
9971;DHT22;5026;51.494;11.974;2024-02-23T15:23:24;9.90;88.20
9971;DHT22;5026;51.494;11.974;2024-02-23T15:25:50;9.80;88.40
9971;DHT22;5026;51.494;11.974;2024-02-23T15:28:19;9.80;88.80
9971;DHT22;5026;51.494;11.974;2024-02-23T15:30:48;9.80;88.60
9971;DHT22;5026;51.494;11.974;2024-02-23T15:33:16;9.70;88.60
9971;DHT22;5026;51.494;11.974;2024-02-23T15:35:43;9.70;88.70
9971;DHT22;5026;51.494;11.974;2024-02-23T15:38:10;9.70;89.00
9971;DHT22;5026;51.494;11.974;2024-02-23T15:40:37;9.70;89.20
9971;DHT22;5026;51.494;11.974;2024-02-23T15:43:04;9.60;89.10
9971;DHT22;5026;51.494;11.974;2024-02-23T15:45:31;9.60;89.20
9971;DHT22;5026;51.494;11.974;2024-02-23T15:47:58;9.60;88.70
9971;DHT22;5026;51.494;11.974;2024-02-23T15:50:26;9.60;88.80
9971;DHT22;5026;51.494;11.974;2024-02-23T15:52:53;9.50;89.10